sensor_id;sensor_type;location;lat;lon;timestamp;P1;durP1;ratioP1;P2;durP2;ratioP2
41061;SDS011;26812;42.662;23.352;2022-10-16T00:00:44;17.15;;;10.40;;
41061;SDS011;26812;42.662;23.352;2022-10-16T00:03:10;18.15;;;10.77;;
41061;SDS011;26812;42.662;23.352;2022-10-16T00:05:42;15.55;;;10.48;;
41061;SDS011;26812;42.662;23.352;2022-10-16T00:08:10;19.60;;;11.98;;
41061;SDS011;26812;42.662;23.352;2022-10-16T00:10:37;16.95;;;10.85;;
41061;SDS011;26812;42.662;23.352;2022-10-16T00:13:03;13.93;;;10.82;;
41061;SDS011;26812;42.662;23.352;2022-10-16T00:15:30;18.48;;;11.13;;
41061;SDS011;26812;42.662;23.352;2022-10-16T00:17:57;14.85;;;10.82;;
41061;SDS011;26812;42.662;23.352;2022-10-16T00:20:23;14.60;;;10.35;;
41061;SDS011;26812;42.662;23.352;2022-10-16T00:22:48;16.52;;;11.60;;
41061;SDS011;26812;42.662;23.352;2022-10-16T00:25:14;15.48;;;10.60;;
41061;SDS011;26812;42.662;23.352;2022-10-16T00:27:39;17.75;;;10.30;;
41061;SDS011;26812;42.662;23.352;2022-10-16T00:30:05;15.43;;;10.57;;
41061;SDS011;26812;42.662;23.352;2022-10-16T00:32:33;14.70;;;10.73;;
41061;SDS011;26812;42.662;23.352;2022-10-16T00:34:58;14.63;;;10.45;;
41061;SDS011;26812;42.662;23.352;2022-10-16T00:37:24;15.15;;;10.05;;
41061;SDS011;26812;42.662;23.352;2022-10-16T00:39:49;12.43;;;9.13;;
41061;SDS011;26812;42.662;23.352;2022-10-16T00:42:15;11.73;;;9.27;;
41061;SDS011;26812;42.662;23.352;2022-10-16T00:44:52;16.45;;;10.35;;
41061;SDS011;26812;42.662;23.352;2022-10-16T00:47:27;13.88;;;9.32;;
41061;SDS011;26812;42.662;23.352;2022-10-16T00:49:58;14.75;;;9.20;;
41061;SDS011;26812;42.662;23.352;2022-10-16T00:52:27;14.00;;;9.93;;
41061;SDS011;26812;42.662;23.352;2022-10-16T00:54:53;12.93;;;9.73;;
41061;SDS011;26812;42.662;23.352;2022-10-16T00:57:20;13.80;;;9.57;;
41061;SDS011;26812;42.662;23.352;2022-10-16T00:59:46;14.23;;;9.75;;
41061;SDS011;26812;42.662;23.352;2022-10-16T01:02:13;13.75;;;9.57;;
41061;SDS011;26812;42.662;23.352;2022-10-16T01:04:50;15.18;;;10.07;;
41061;SDS011;26812;42.662;23.352;2022-10-16T01:13:26;16.48;;;10.32;;
41061;SDS011;26812;42.662;23.352;2022-10-16T01:18:43;16.45;;;9.82;;
41061;SDS011;26812;42.662;23.352;2022-10-16T01:23:57;13.63;;;8.85;;
41061;SDS011;26812;42.662;23.352;2022-10-16T01:29:27;12.13;;;9.65;;
41061;SDS011;26812;42.662;23.352;2022-10-16T01:32:00;15.57;;;9.80;;
41061;SDS011;26812;42.662;23.352;2022-10-16T01:34:37;13.38;;;9.10;;
41061;SDS011;26812;42.662;23.352;2022-10-16T01:37:11;12.95;;;9.38;;
41061;SDS011;26812;42.662;23.352;2022-10-16T01:39:39;15.35;;;8.93;;
41061;SDS011;26812;42.662;23.352;2022-10-16T01:42:21;16.40;;;10.55;;
41061;SDS011;26812;42.662;23.352;2022-10-16T01:44:50;15.77;;;9.02;;
41061;SDS011;26812;42.662;23.352;2022-10-16T01:47:18;13.73;;;8.65;;
41061;SDS011;26812;42.662;23.352;2022-10-16T01:49:48;14.57;;;9.60;;
41061;SDS011;26812;42.662;23.352;2022-10-16T01:52:16;14.48;;;8.95;;
41061;SDS011;26812;42.662;23.352;2022-10-16T01:54:46;9.90;;;8.75;;
41061;SDS011;26812;42.662;23.352;2022-10-16T01:57:14;14.32;;;9.50;;
41061;SDS011;26812;42.662;23.352;2022-10-16T01:59:45;15.13;;;9.00;;
41061;SDS011;26812;42.662;23.352;2022-10-16T02:02:14;10.88;;;8.90;;
41061;SDS011;26812;42.662;23.352;2022-10-16T02:04:43;11.68;;;8.52;;
41061;SDS011;26812;42.662;23.352;2022-10-16T02:07:10;13.13;;;9.10;;
41061;SDS011;26812;42.662;23.352;2022-10-16T02:09:37;14.43;;;10.13;;
41061;SDS011;26812;42.662;23.352;2022-10-16T02:12:06;12.50;;;8.23;;
41061;SDS011;26812;42.662;23.352;2022-10-16T02:14:37;10.35;;;8.35;;
41061;SDS011;26812;42.662;23.352;2022-10-16T02:17:10;14.10;;;9.80;;
41061;SDS011;26812;42.662;23.352;2022-10-16T02:19:47;11.18;;;9.25;;
41061;SDS011;26812;42.662;23.352;2022-10-16T02:22:15;12.73;;;9.43;;
41061;SDS011;26812;42.662;23.352;2022-10-16T02:24:49;15.93;;;8.60;;
41061;SDS011;26812;42.662;23.352;2022-10-16T02:29:52;13.73;;;8.30;;
41061;SDS011;26812;42.662;23.352;2022-10-16T02:32:24;11.57;;;8.20;;
41061;SDS011;26812;42.662;23.352;2022-10-16T02:34:55;10.85;;;8.38;;
41061;SDS011;26812;42.662;23.352;2022-10-16T02:37:22;11.98;;;7.80;;
41061;SDS011;26812;42.662;23.352;2022-10-16T02:39:49;13.05;;;8.15;;
41061;SDS011;26812;42.662;23.352;2022-10-16T02:42:14;13.10;;;8.68;;
41061;SDS011;26812;42.662;23.352;2022-10-16T02:44:42;13.32;;;7.72;;
41061;SDS011;26812;42.662;23.352;2022-10-16T02:47:08;9.95;;;8.15;;
41061;SDS011;26812;42.662;23.352;2022-10-16T02:49:33;11.88;;;8.80;;
41061;SDS011;26812;42.662;23.352;2022-10-16T02:51:58;15.27;;;7.95;;
41061;SDS011;26812;42.662;23.352;2022-10-16T02:54:24;11.13;;;8.77;;
41061;SDS011;26812;42.662;23.352;2022-10-16T02:56:49;13.73;;;9.02;;
41061;SDS011;26812;42.662;23.352;2022-10-16T02:59:15;11.65;;;8.55;;
41061;SDS011;26812;42.662;23.352;2022-10-16T03:01:41;12.75;;;7.85;;
41061;SDS011;26812;42.662;23.352;2022-10-16T03:04:06;10.93;;;8.63;;
41061;SDS011;26812;42.662;23.352;2022-10-16T03:06:31;12.02;;;8.15;;
41061;SDS011;26812;42.662;23.352;2022-10-16T03:08:57;12.32;;;8.60;;
41061;SDS011;26812;42.662;23.352;2022-10-16T03:11:22;14.63;;;8.95;;
41061;SDS011;26812;42.662;23.352;2022-10-16T03:13:47;14.40;;;9.07;;
41061;SDS011;26812;42.662;23.352;2022-10-16T03:16:13;13.13;;;9.02;;
41061;SDS011;26812;42.662;23.352;2022-10-16T03:18:38;16.00;;;10.10;;
41061;SDS011;26812;42.662;23.352;2022-10-16T03:21:04;14.02;;;9.43;;
41061;SDS011;26812;42.662;23.352;2022-10-16T03:23:29;13.20;;;9.20;;
41061;SDS011;26812;42.662;23.352;2022-10-16T03:25:55;14.30;;;8.95;;
41061;SDS011;26812;42.662;23.352;2022-10-16T03:28:20;11.68;;;8.48;;
41061;SDS011;26812;42.662;23.352;2022-10-16T03:30:45;12.30;;;9.30;;
41061;SDS011;26812;42.662;23.352;2022-10-16T03:33:11;15.93;;;9.02;;
41061;SDS011;26812;42.662;23.352;2022-10-16T03:35:36;21.05;;;9.05;;
41061;SDS011;26812;42.662;23.352;2022-10-16T03:38:02;15.70;;;9.35;;
41061;SDS011;26812;42.662;23.352;2022-10-16T03:40:27;11.70;;;9.13;;
41061;SDS011;26812;42.662;23.352;2022-10-16T03:42:53;15.68;;;9.73;;
41061;SDS011;26812;42.662;23.352;2022-10-16T03:45:22;11.68;;;8.48;;
41061;SDS011;26812;42.662;23.352;2022-10-16T03:47:47;15.38;;;8.95;;
41061;SDS011;26812;42.662;23.352;2022-10-16T03:50:13;14.63;;;9.50;;
41061;SDS011;26812;42.662;23.352;2022-10-16T03:52:38;12.80;;;8.88;;
41061;SDS011;26812;42.662;23.352;2022-10-16T03:55:04;12.82;;;8.77;;
41061;SDS011;26812;42.662;23.352;2022-10-16T03:57:30;14.15;;;8.70;;
41061;SDS011;26812;42.662;23.352;2022-10-16T03:59:55;15.70;;;9.00;;
41061;SDS011;26812;42.662;23.352;2022-10-16T04:02:20;13.35;;;8.48;;
41061;SDS011;26812;42.662;23.352;2022-10-16T04:04:46;13.00;;;9.15;;
41061;SDS011;26812;42.662;23.352;2022-10-16T04:07:11;14.10;;;8.88;;
41061;SDS011;26812;42.662;23.352;2022-10-16T04:09:37;12.93;;;8.70;;
41061;SDS011;26812;42.662;23.352;2022-10-16T04:12:02;12.35;;;7.63;;
41061;SDS011;26812;42.662;23.352;2022-10-16T04:14:28;11.82;;;8.60;;
41061;SDS011;26812;42.662;23.352;2022-10-16T04:16:53;12.52;;;8.55;;
41061;SDS011;26812;42.662;23.352;2022-10-16T04:19:24;11.27;;;8.20;;
41061;SDS011;26812;42.662;23.352;2022-10-16T04:21:53;12.18;;;8.15;;
41061;SDS011;26812;42.662;23.352;2022-10-16T04:24:18;11.95;;;8.65;;
41061;SDS011;26812;42.662;23.352;2022-10-16T04:26:44;14.02;;;9.25;;
41061;SDS011;26812;42.662;23.352;2022-10-16T04:29:12;13.18;;;8.27;;
41061;SDS011;26812;42.662;23.352;2022-10-16T04:31:37;13.75;;;8.95;;
41061;SDS011;26812;42.662;23.352;2022-10-16T04:34:03;11.48;;;8.63;;
41061;SDS011;26812;42.662;23.352;2022-10-16T04:36:28;16.90;;;9.25;;
41061;SDS011;26812;42.662;23.352;2022-10-16T04:38:54;15.15;;;9.55;;
41061;SDS011;26812;42.662;23.352;2022-10-16T04:41:19;13.07;;;8.88;;
41061;SDS011;26812;42.662;23.352;2022-10-16T04:43:45;15.23;;;8.70;;
41061;SDS011;26812;42.662;23.352;2022-10-16T04:46:10;13.48;;;9.40;;
41061;SDS011;26812;42.662;23.352;2022-10-16T04:48:36;11.70;;;9.32;;
41061;SDS011;26812;42.662;23.352;2022-10-16T04:51:01;12.63;;;8.80;;
41061;SDS011;26812;42.662;23.352;2022-10-16T04:53:27;10.77;;;8.65;;
41061;SDS011;26812;42.662;23.352;2022-10-16T04:55:52;12.80;;;7.80;;
41061;SDS011;26812;42.662;23.352;2022-10-16T04:58:17;12.20;;;9.55;;
41061;SDS011;26812;42.662;23.352;2022-10-16T05:00:46;13.95;;;9.50;;
41061;SDS011;26812;42.662;23.352;2022-10-16T05:03:12;12.20;;;8.73;;
41061;SDS011;26812;42.662;23.352;2022-10-16T05:05:41;13.52;;;8.63;;
41061;SDS011;26812;42.662;23.352;2022-10-16T05:08:08;12.45;;;9.10;;
41061;SDS011;26812;42.662;23.352;2022-10-16T05:10:33;14.88;;;8.60;;
41061;SDS011;26812;42.662;23.352;2022-10-16T05:12:58;13.98;;;8.13;;
41061;SDS011;26812;42.662;23.352;2022-10-16T05:15:24;15.30;;;9.35;;
41061;SDS011;26812;42.662;23.352;2022-10-16T05:17:52;16.45;;;11.15;;
41061;SDS011;26812;42.662;23.352;2022-10-16T05:20:21;13.88;;;9.55;;
41061;SDS011;26812;42.662;23.352;2022-10-16T05:22:47;15.25;;;9.50;;
41061;SDS011;26812;42.662;23.352;2022-10-16T05:25:14;13.55;;;9.25;;
41061;SDS011;26812;42.662;23.352;2022-10-16T05:27:41;12.38;;;8.77;;
41061;SDS011;26812;42.662;23.352;2022-10-16T05:30:06;12.90;;;9.25;;
41061;SDS011;26812;42.662;23.352;2022-10-16T05:32:32;16.15;;;9.38;;
41061;SDS011;26812;42.662;23.352;2022-10-16T05:34:58;13.50;;;9.93;;
41061;SDS011;26812;42.662;23.352;2022-10-16T05:37:25;13.68;;;8.55;;
41061;SDS011;26812;42.662;23.352;2022-10-16T05:39:50;14.10;;;9.07;;
41061;SDS011;26812;42.662;23.352;2022-10-16T05:42:16;18.80;;;9.15;;
41061;SDS011;26812;42.662;23.352;2022-10-16T05:44:41;11.10;;;9.20;;
41061;SDS011;26812;42.662;23.352;2022-10-16T05:47:07;12.85;;;8.90;;
41061;SDS011;26812;42.662;23.352;2022-10-16T05:49:32;13.75;;;10.23;;
41061;SDS011;26812;42.662;23.352;2022-10-16T05:51:58;14.15;;;10.35;;
41061;SDS011;26812;42.662;23.352;2022-10-16T05:54:23;17.15;;;10.00;;
41061;SDS011;26812;42.662;23.352;2022-10-16T05:56:48;13.65;;;9.73;;
41061;SDS011;26812;42.662;23.352;2022-10-16T05:59:14;12.98;;;8.75;;
41061;SDS011;26812;42.662;23.352;2022-10-16T06:01:46;14.60;;;9.40;;
41061;SDS011;26812;42.662;23.352;2022-10-16T06:04:11;13.02;;;8.93;;
41061;SDS011;26812;42.662;23.352;2022-10-16T06:06:36;13.32;;;9.65;;
41061;SDS011;26812;42.662;23.352;2022-10-16T06:09:02;14.02;;;9.30;;
41061;SDS011;26812;42.662;23.352;2022-10-16T06:11:29;11.70;;;9.02;;
41061;SDS011;26812;42.662;23.352;2022-10-16T06:13:56;15.05;;;9.77;;
41061;SDS011;26812;42.662;23.352;2022-10-16T06:16:29;11.57;;;7.95;;
41061;SDS011;26812;42.662;23.352;2022-10-16T06:19:02;9.82;;;7.75;;
41061;SDS011;26812;42.662;23.352;2022-10-16T06:21:31;11.77;;;7.60;;
41061;SDS011;26812;42.662;23.352;2022-10-16T06:23:59;11.20;;;8.35;;
41061;SDS011;26812;42.662;23.352;2022-10-16T06:26:26;10.30;;;7.75;;
41061;SDS011;26812;42.662;23.352;2022-10-16T06:28:55;12.82;;;8.27;;
41061;SDS011;26812;42.662;23.352;2022-10-16T06:31:22;11.18;;;7.10;;
41061;SDS011;26812;42.662;23.352;2022-10-16T06:33:51;9.60;;;7.05;;
41061;SDS011;26812;42.662;23.352;2022-10-16T06:36:17;9.30;;;7.72;;
41061;SDS011;26812;42.662;23.352;2022-10-16T06:38:44;11.68;;;7.60;;
41061;SDS011;26812;42.662;23.352;2022-10-16T06:41:11;12.60;;;6.38;;
41061;SDS011;26812;42.662;23.352;2022-10-16T06:43:37;10.38;;;7.05;;
41061;SDS011;26812;42.662;23.352;2022-10-16T06:46:03;9.27;;;6.53;;
41061;SDS011;26812;42.662;23.352;2022-10-16T06:48:30;9.38;;;5.85;;
41061;SDS011;26812;42.662;23.352;2022-10-16T06:51:03;9.05;;;6.75;;
41061;SDS011;26812;42.662;23.352;2022-10-16T06:53:31;9.73;;;6.65;;
41061;SDS011;26812;42.662;23.352;2022-10-16T06:56:06;11.07;;;7.53;;
41061;SDS011;26812;42.662;23.352;2022-10-16T06:58:36;8.20;;;7.32;;
41061;SDS011;26812;42.662;23.352;2022-10-16T07:01:02;13.95;;;8.32;;
41061;SDS011;26812;42.662;23.352;2022-10-16T07:03:28;10.50;;;9.15;;
41061;SDS011;26812;42.662;23.352;2022-10-16T07:05:54;12.85;;;8.38;;
41061;SDS011;26812;42.662;23.352;2022-10-16T07:08:19;13.52;;;8.10;;
41061;SDS011;26812;42.662;23.352;2022-10-16T07:10:45;11.93;;;8.30;;
41061;SDS011;26812;42.662;23.352;2022-10-16T07:13:10;11.25;;;8.15;;
41061;SDS011;26812;42.662;23.352;2022-10-16T07:15:38;12.15;;;7.90;;
41061;SDS011;26812;42.662;23.352;2022-10-16T07:18:04;11.65;;;7.35;;
41061;SDS011;26812;42.662;23.352;2022-10-16T07:20:29;10.70;;;7.03;;
41061;SDS011;26812;42.662;23.352;2022-10-16T07:22:55;7.97;;;7.00;;
41061;SDS011;26812;42.662;23.352;2022-10-16T07:25:20;8.70;;;7.00;;
41061;SDS011;26812;42.662;23.352;2022-10-16T07:27:45;10.25;;;7.68;;
41061;SDS011;26812;42.662;23.352;2022-10-16T07:30:11;8.40;;;7.32;;
41061;SDS011;26812;42.662;23.352;2022-10-16T07:32:37;7.95;;;6.93;;
41061;SDS011;26812;42.662;23.352;2022-10-16T07:35:02;9.13;;;7.30;;
41061;SDS011;26812;42.662;23.352;2022-10-16T07:37:28;9.80;;;7.15;;
41061;SDS011;26812;42.662;23.352;2022-10-16T07:39:54;10.48;;;6.70;;
41061;SDS011;26812;42.662;23.352;2022-10-16T07:42:19;7.65;;;6.00;;
41061;SDS011;26812;42.662;23.352;2022-10-16T07:44:45;7.75;;;6.20;;
41061;SDS011;26812;42.662;23.352;2022-10-16T07:47:10;7.35;;;6.00;;
41061;SDS011;26812;42.662;23.352;2022-10-16T07:49:36;7.38;;;5.60;;
41061;SDS011;26812;42.662;23.352;2022-10-16T07:52:01;7.45;;;6.28;;
41061;SDS011;26812;42.662;23.352;2022-10-16T07:54:26;9.77;;;6.13;;
41061;SDS011;26812;42.662;23.352;2022-10-16T07:56:52;8.13;;;5.75;;
41061;SDS011;26812;42.662;23.352;2022-10-16T07:59:17;7.13;;;5.60;;
41061;SDS011;26812;42.662;23.352;2022-10-16T08:01:43;6.78;;;5.80;;
41061;SDS011;26812;42.662;23.352;2022-10-16T08:04:09;7.07;;;5.57;;
41061;SDS011;26812;42.662;23.352;2022-10-16T08:06:37;8.32;;;5.05;;
41061;SDS011;26812;42.662;23.352;2022-10-16T08:09:04;7.10;;;5.90;;
41061;SDS011;26812;42.662;23.352;2022-10-16T08:11:30;5.88;;;5.28;;
41061;SDS011;26812;42.662;23.352;2022-10-16T08:13:56;8.85;;;6.07;;
41061;SDS011;26812;42.662;23.352;2022-10-16T08:16:21;8.65;;;5.78;;
41061;SDS011;26812;42.662;23.352;2022-10-16T08:18:47;7.55;;;5.25;;
41061;SDS011;26812;42.662;23.352;2022-10-16T08:21:14;7.05;;;5.32;;
41061;SDS011;26812;42.662;23.352;2022-10-16T08:23:41;8.45;;;5.75;;
41061;SDS011;26812;42.662;23.352;2022-10-16T08:26:07;6.82;;;5.45;;
41061;SDS011;26812;42.662;23.352;2022-10-16T08:28:33;7.88;;;5.32;;
41061;SDS011;26812;42.662;23.352;2022-10-16T08:31:12;5.43;;;4.45;;
41061;SDS011;26812;42.662;23.352;2022-10-16T08:33:41;5.45;;;4.90;;
41061;SDS011;26812;42.662;23.352;2022-10-16T08:36:08;5.85;;;5.10;;
41061;SDS011;26812;42.662;23.352;2022-10-16T08:38:34;9.40;;;5.30;;
41061;SDS011;26812;42.662;23.352;2022-10-16T08:46:25;5.25;;;4.75;;
41061;SDS011;26812;42.662;23.352;2022-10-16T08:48:55;7.68;;;4.25;;
41061;SDS011;26812;42.662;23.352;2022-10-16T08:53:54;6.10;;;4.60;;
41061;SDS011;26812;42.662;23.352;2022-10-16T08:56:25;7.22;;;4.22;;
41061;SDS011;26812;42.662;23.352;2022-10-16T08:58:51;4.85;;;3.85;;
41061;SDS011;26812;42.662;23.352;2022-10-16T09:01:19;4.68;;;4.03;;
41061;SDS011;26812;42.662;23.352;2022-10-16T09:11:55;4.03;;;3.38;;
41061;SDS011;26812;42.662;23.352;2022-10-16T09:19:51;6.13;;;3.45;;
41061;SDS011;26812;42.662;23.352;2022-10-16T09:22:32;5.20;;;3.60;;
41061;SDS011;26812;42.662;23.352;2022-10-16T09:24:59;5.43;;;3.75;;
41061;SDS011;26812;42.662;23.352;2022-10-16T09:27:36;5.95;;;3.15;;
41061;SDS011;26812;42.662;23.352;2022-10-16T09:30:10;4.55;;;3.45;;
41061;SDS011;26812;42.662;23.352;2022-10-16T09:32:40;4.95;;;3.00;;
41061;SDS011;26812;42.662;23.352;2022-10-16T09:35:18;4.00;;;2.78;;
41061;SDS011;26812;42.662;23.352;2022-10-16T09:37:46;4.30;;;3.05;;
41061;SDS011;26812;42.662;23.352;2022-10-16T09:40:30;2.92;;;2.53;;
41061;SDS011;26812;42.662;23.352;2022-10-16T09:45:42;3.97;;;2.72;;
41061;SDS011;26812;42.662;23.352;2022-10-16T09:48:10;3.13;;;2.60;;
41061;SDS011;26812;42.662;23.352;2022-10-16T09:50:37;3.15;;;2.45;;
41061;SDS011;26812;42.662;23.352;2022-10-16T09:53:12;3.50;;;2.60;;
41061;SDS011;26812;42.662;23.352;2022-10-16T09:55:52;4.63;;;3.42;;
41061;SDS011;26812;42.662;23.352;2022-10-16T09:58:21;4.45;;;3.25;;
41061;SDS011;26812;42.662;23.352;2022-10-16T10:00:52;3.85;;;2.53;;
41061;SDS011;26812;42.662;23.352;2022-10-16T10:03:55;3.90;;;2.65;;
41061;SDS011;26812;42.662;23.352;2022-10-16T10:08:53;4.80;;;3.10;;
41061;SDS011;26812;42.662;23.352;2022-10-16T10:16:49;3.08;;;2.75;;
41061;SDS011;26812;42.662;23.352;2022-10-16T10:19:17;4.18;;;3.03;;
41061;SDS011;26812;42.662;23.352;2022-10-16T10:21:45;4.82;;;3.42;;
41061;SDS011;26812;42.662;23.352;2022-10-16T10:24:11;4.47;;;3.03;;
41061;SDS011;26812;42.662;23.352;2022-10-16T10:26:51;2.60;;;2.38;;
41061;SDS011;26812;42.662;23.352;2022-10-16T10:32:28;3.88;;;2.72;;
41061;SDS011;26812;42.662;23.352;2022-10-16T10:38:00;3.45;;;2.53;;
41061;SDS011;26812;42.662;23.352;2022-10-16T10:43:10;2.53;;;2.22;;
41061;SDS011;26812;42.662;23.352;2022-10-16T10:45:52;6.40;;;2.90;;
41061;SDS011;26812;42.662;23.352;2022-10-16T10:48:47;4.32;;;2.60;;
41061;SDS011;26812;42.662;23.352;2022-10-16T10:51:17;3.83;;;2.63;;
41061;SDS011;26812;42.662;23.352;2022-10-16T11:02:35;3.78;;;2.50;;
41061;SDS011;26812;42.662;23.352;2022-10-16T11:10:42;3.28;;;2.42;;
41061;SDS011;26812;42.662;23.352;2022-10-16T11:13:25;3.38;;;2.75;;
41061;SDS011;26812;42.662;23.352;2022-10-16T11:15:58;2.33;;;1.77;;
41061;SDS011;26812;42.662;23.352;2022-10-16T11:18:32;2.00;;;1.80;;
41061;SDS011;26812;42.662;23.352;2022-10-16T11:21:08;2.83;;;2.45;;
41061;SDS011;26812;42.662;23.352;2022-10-16T11:23:38;2.50;;;2.25;;
41061;SDS011;26812;42.662;23.352;2022-10-16T11:26:16;3.40;;;2.13;;
41061;SDS011;26812;42.662;23.352;2022-10-16T11:28:49;4.00;;;2.65;;
41061;SDS011;26812;42.662;23.352;2022-10-16T11:31:25;2.45;;;2.20;;
41061;SDS011;26812;42.662;23.352;2022-10-16T11:34:12;2.42;;;2.22;;
41061;SDS011;26812;42.662;23.352;2022-10-16T11:36:44;2.53;;;1.75;;
41061;SDS011;26812;42.662;23.352;2022-10-16T11:49:49;2.33;;;2.13;;
41061;SDS011;26812;42.662;23.352;2022-10-16T11:54:47;2.03;;;1.88;;
41061;SDS011;26812;42.662;23.352;2022-10-16T11:57:22;2.60;;;2.20;;
41061;SDS011;26812;42.662;23.352;2022-10-16T11:59:53;2.72;;;2.10;;
41061;SDS011;26812;42.662;23.352;2022-10-16T12:05:09;3.58;;;2.22;;
41061;SDS011;26812;42.662;23.352;2022-10-16T12:07:39;3.13;;;2.70;;
41061;SDS011;26812;42.662;23.352;2022-10-16T12:10:21;3.58;;;2.05;;
41061;SDS011;26812;42.662;23.352;2022-10-16T12:12:49;4.50;;;2.35;;
41061;SDS011;26812;42.662;23.352;2022-10-16T12:17:43;4.47;;;2.50;;
41061;SDS011;26812;42.662;23.352;2022-10-16T12:22:40;4.05;;;2.50;;
41061;SDS011;26812;42.662;23.352;2022-10-16T12:28:21;3.90;;;2.67;;
41061;SDS011;26812;42.662;23.352;2022-10-16T12:33:30;3.05;;;2.45;;
41061;SDS011;26812;42.662;23.352;2022-10-16T12:35:59;2.22;;;2.03;;
41061;SDS011;26812;42.662;23.352;2022-10-16T12:38:32;3.35;;;2.00;;
41061;SDS011;26812;42.662;23.352;2022-10-16T12:41:07;2.67;;;1.90;;
41061;SDS011;26812;42.662;23.352;2022-10-16T12:48:40;3.67;;;2.10;;
41061;SDS011;26812;42.662;23.352;2022-10-16T12:51:19;2.50;;;2.30;;
41061;SDS011;26812;42.662;23.352;2022-10-16T12:54:00;2.65;;;2.25;;
41061;SDS011;26812;42.662;23.352;2022-10-16T12:59:35;2.58;;;2.03;;
41061;SDS011;26812;42.662;23.352;2022-10-16T13:05:02;3.40;;;2.10;;
41061;SDS011;26812;42.662;23.352;2022-10-16T13:10:28;1.80;;;1.70;;
41061;SDS011;26812;42.662;23.352;2022-10-16T13:13:10;2.97;;;2.25;;
41061;SDS011;26812;42.662;23.352;2022-10-16T13:21:52;2.42;;;2.15;;
41061;SDS011;26812;42.662;23.352;2022-10-16T13:24:50;2.70;;;2.33;;
41061;SDS011;26812;42.662;23.352;2022-10-16T13:27:29;3.45;;;2.17;;
41061;SDS011;26812;42.662;23.352;2022-10-16T13:32:34;3.13;;;2.03;;
41061;SDS011;26812;42.662;23.352;2022-10-16T13:34:59;2.20;;;2.00;;
41061;SDS011;26812;42.662;23.352;2022-10-16T13:37:26;2.40;;;2.08;;
41061;SDS011;26812;42.662;23.352;2022-10-16T13:40:02;3.10;;;2.17;;
41061;SDS011;26812;42.662;23.352;2022-10-16T13:42:42;3.20;;;2.08;;
41061;SDS011;26812;42.662;23.352;2022-10-16T13:45:17;4.43;;;2.30;;
41061;SDS011;26812;42.662;23.352;2022-10-16T13:47:44;2.72;;;2.17;;
41061;SDS011;26812;42.662;23.352;2022-10-16T13:50:13;3.50;;;2.75;;
41061;SDS011;26812;42.662;23.352;2022-10-16T13:52:43;4.32;;;2.45;;
41061;SDS011;26812;42.662;23.352;2022-10-16T13:55:12;3.80;;;2.30;;
41061;SDS011;26812;42.662;23.352;2022-10-16T13:57:39;3.70;;;2.97;;
41061;SDS011;26812;42.662;23.352;2022-10-16T14:00:17;3.50;;;2.58;;
41061;SDS011;26812;42.662;23.352;2022-10-16T14:02:49;3.65;;;2.63;;
41061;SDS011;26812;42.662;23.352;2022-10-16T14:05:20;3.28;;;2.63;;
41061;SDS011;26812;42.662;23.352;2022-10-16T14:07:48;12.23;;;6.97;;
41061;SDS011;26812;42.662;23.352;2022-10-16T14:10:26;3.05;;;2.65;;
41061;SDS011;26812;42.662;23.352;2022-10-16T14:13:01;3.47;;;2.85;;
41061;SDS011;26812;42.662;23.352;2022-10-16T14:15:32;2.50;;;2.30;;
41061;SDS011;26812;42.662;23.352;2022-10-16T14:18:00;2.55;;;2.17;;
41061;SDS011;26812;42.662;23.352;2022-10-16T14:20:30;3.72;;;2.47;;
41061;SDS011;26812;42.662;23.352;2022-10-16T14:23:04;2.50;;;2.30;;
41061;SDS011;26812;42.662;23.352;2022-10-16T14:25:45;2.92;;;2.58;;
41061;SDS011;26812;42.662;23.352;2022-10-16T14:28:21;3.85;;;3.45;;
41061;SDS011;26812;42.662;23.352;2022-10-16T14:30:55;3.92;;;3.17;;
41061;SDS011;26812;42.662;23.352;2022-10-16T14:36:02;5.57;;;3.08;;
41061;SDS011;26812;42.662;23.352;2022-10-16T14:38:33;3.47;;;2.80;;
41061;SDS011;26812;42.662;23.352;2022-10-16T14:40:59;4.82;;;3.90;;
41061;SDS011;26812;42.662;23.352;2022-10-16T14:45:54;3.78;;;3.38;;
41061;SDS011;26812;42.662;23.352;2022-10-16T14:48:21;4.63;;;3.30;;
41061;SDS011;26812;42.662;23.352;2022-10-16T14:50:47;3.20;;;2.90;;
41061;SDS011;26812;42.662;23.352;2022-10-16T14:53:13;3.47;;;2.60;;
41061;SDS011;26812;42.662;23.352;2022-10-16T14:55:39;4.22;;;2.40;;
41061;SDS011;26812;42.662;23.352;2022-10-16T14:58:08;3.42;;;2.58;;
41061;SDS011;26812;42.662;23.352;2022-10-16T15:00:46;4.80;;;2.80;;
41061;SDS011;26812;42.662;23.352;2022-10-16T15:03:11;3.35;;;2.45;;
41061;SDS011;26812;42.662;23.352;2022-10-16T15:05:37;2.97;;;2.35;;
41061;SDS011;26812;42.662;23.352;2022-10-16T15:08:02;2.97;;;2.78;;
41061;SDS011;26812;42.662;23.352;2022-10-16T15:10:29;5.00;;;2.42;;
41061;SDS011;26812;42.662;23.352;2022-10-16T15:12:57;4.35;;;2.95;;
41061;SDS011;26812;42.662;23.352;2022-10-16T15:17:57;6.07;;;4.40;;
41061;SDS011;26812;42.662;23.352;2022-10-16T15:20:25;4.70;;;3.10;;
41061;SDS011;26812;42.662;23.352;2022-10-16T15:22:52;3.10;;;2.72;;
41061;SDS011;26812;42.662;23.352;2022-10-16T15:27:46;5.50;;;3.40;;
41061;SDS011;26812;42.662;23.352;2022-10-16T15:30:11;5.65;;;3.80;;
41061;SDS011;26812;42.662;23.352;2022-10-16T15:32:37;4.30;;;2.78;;
41061;SDS011;26812;42.662;23.352;2022-10-16T15:35:02;5.10;;;3.53;;
41061;SDS011;26812;42.662;23.352;2022-10-16T15:37:28;6.00;;;3.83;;
41061;SDS011;26812;42.662;23.352;2022-10-16T15:39:53;4.32;;;3.47;;
41061;SDS011;26812;42.662;23.352;2022-10-16T15:42:18;6.70;;;3.47;;
41061;SDS011;26812;42.662;23.352;2022-10-16T15:44:44;7.55;;;4.80;;
41061;SDS011;26812;42.662;23.352;2022-10-16T15:47:10;7.32;;;4.55;;
41061;SDS011;26812;42.662;23.352;2022-10-16T15:49:35;5.95;;;4.13;;
41061;SDS011;26812;42.662;23.352;2022-10-16T15:52:03;6.15;;;3.65;;
41061;SDS011;26812;42.662;23.352;2022-10-16T15:54:28;6.50;;;3.75;;
41061;SDS011;26812;42.662;23.352;2022-10-16T15:56:54;4.75;;;3.55;;
41061;SDS011;26812;42.662;23.352;2022-10-16T15:59:19;6.78;;;3.95;;
41061;SDS011;26812;42.662;23.352;2022-10-16T16:01:45;5.57;;;4.00;;
41061;SDS011;26812;42.662;23.352;2022-10-16T16:04:10;7.57;;;4.30;;
41061;SDS011;26812;42.662;23.352;2022-10-16T16:06:38;5.85;;;3.50;;
41061;SDS011;26812;42.662;23.352;2022-10-16T16:09:09;6.45;;;4.13;;
41061;SDS011;26812;42.662;23.352;2022-10-16T16:11:41;6.38;;;3.92;;
41061;SDS011;26812;42.662;23.352;2022-10-16T16:14:10;6.65;;;4.00;;
41061;SDS011;26812;42.662;23.352;2022-10-16T16:16:38;5.88;;;4.50;;
41061;SDS011;26812;42.662;23.352;2022-10-16T16:19:06;7.50;;;4.07;;
41061;SDS011;26812;42.662;23.352;2022-10-16T16:21:32;7.10;;;4.50;;
41061;SDS011;26812;42.662;23.352;2022-10-16T16:23:58;6.95;;;4.78;;
41061;SDS011;26812;42.662;23.352;2022-10-16T16:28:52;6.13;;;4.93;;
41061;SDS011;26812;42.662;23.352;2022-10-16T16:31:19;6.80;;;5.25;;
41061;SDS011;26812;42.662;23.352;2022-10-16T16:33:46;7.00;;;4.10;;
41061;SDS011;26812;42.662;23.352;2022-10-16T16:36:11;8.98;;;4.35;;
41061;SDS011;26812;42.662;23.352;2022-10-16T16:38:37;9.13;;;5.28;;
41061;SDS011;26812;42.662;23.352;2022-10-16T16:41:17;5.47;;;4.55;;
41061;SDS011;26812;42.662;23.352;2022-10-16T16:43:44;8.93;;;5.47;;
41061;SDS011;26812;42.662;23.352;2022-10-16T16:46:09;6.60;;;4.25;;
41061;SDS011;26812;42.662;23.352;2022-10-16T16:48:36;7.68;;;5.25;;
41061;SDS011;26812;42.662;23.352;2022-10-16T16:51:07;7.88;;;5.28;;